Time;durP1;ratioP1;P1;durP2;ratioP2;P2;SDS_P1;SDS_P2;PMS_P1;PMS_P2;Temp;Humidity;BMP_temperature;BMP_pressure;BME280_temperature;BME280_humidity;BME280_pressure;Samples;Min_cycle;Max_cycle;Signal;HPM_P1;HPM_P2
2021/12/17 00:07:17;;;;;;;5.40;4.70;;;;;;;17.59;49.06;99109.88;5020658;28;20194;-80
2021/12/17 00:09:44;;;;;;;6.03;4.90;;;;;;;16.71;48.79;98949.44;4983767;28;20225;-77
2021/12/17 00:12:21;;;;;;;6.70;4.93;;;;;;;17.29;49.10;99064.50;4975993;28;20229;-78
2021/12/17 00:14:50;;;;;;;6.33;5.00;;;;;;;19.73;49.29;99492.47;4975270;28;20210;-78
2021/12/17 00:17:22;;;;;;;6.17;5.03;;;;;;;16.37;48.94;98933.44;4982389;28;20206;-78
2021/12/17 00:52:35;;;;;;;5.30;4.17;;;;;;;16.88;49.71;99017.53;5028269;28;20213;-78
2021/12/17 00:55:03;;;;;;;8.00;5.17;;;;;;;19.67;49.76;99450.34;4994852;28;20218;-78
2021/12/17 00:57:36;;;;;;;5.17;4.20;;;;;;;19.67;49.78;99443.59;5012070;28;20521;-79
2021/12/17 01:00:05;;;;;;;5.13;4.57;;;;;;;19.66;49.71;99457.09;4995542;28;20214;-77
2021/12/17 01:02:41;;;;;;;7.10;4.47;;;;;;;19.66;49.84;99439.25;5029417;28;20581;-79
2021/12/17 01:05:11;;;;;;;5.80;4.20;;;;;;;19.66;49.83;99426.50;5048417;28;20747;-77
2021/12/17 01:07:40;;;;;;;6.47;4.67;;;;;;;19.66;49.93;99434.13;4992289;28;20210;-80
2021/12/17 01:10:26;;;;;;;6.97;4.80;;;;;;;19.66;49.89;99435.84;5008425;28;20246;-78
2021/12/17 01:12:57;;;;;;;5.43;4.13;;;;;;;19.66;49.85;99441.78;4987830;28;20259;-86
2021/12/17 01:15:25;;;;;;;6.27;4.50;;;;;;;19.09;50.09;99342.63;4983136;28;20202;-86
2021/12/17 01:18:01;;;;;;;7.23;4.20;;;;;;;19.64;50.07;99473.09;5006740;28;20233;-86
2021/12/17 01:21:08;;;;;;;4.90;4.23;;;;;;;19.64;50.11;99430.63;4990761;28;20663;-88
2021/12/17 01:37:02;;;;;;;6.63;4.27;;;;;;;18.95;50.37;99335.75;5005373;28;20198;-78
2021/12/17 01:42:07;;;;;;;5.60;4.97;;;;;;;19.63;50.55;99426.28;4996801;28;20206;-78
2021/12/17 01:44:39;;;;;;;6.00;4.57;;;;;;;19.42;50.34;99385.75;4978474;28;20202;-76
2021/12/17 01:47:08;;;;;;;5.10;4.60;;;;;;;19.65;50.27;99427.28;5019652;28;20217;-77
2021/12/17 02:00:35;;;;;;;5.03;4.50;;;;;;;19.68;50.13;99429.13;5012594;28;20613;-78
2021/12/17 02:03:05;;;;;;;5.00;4.43;;;;;;;19.69;50.29;99420.72;5034036;28;20200;-79
2021/12/17 02:05:35;;;;;;;7.07;5.20;;;;;;;19.69;50.18;99428.38;5010365;28;20226;-78
2021/12/17 02:08:02;;;;;;;5.70;4.80;;;;;;;19.69;50.21;99421.59;4993436;28;20213;-80
2021/12/17 02:30:03;;;;;;;4.77;4.30;;;;;;;18.70;50.25;99245.69;5011524;28;20225;-81
2021/12/17 02:32:32;;;;;;;5.37;4.27;;;;;;;19.34;50.23;99369.94;5011210;28;20212;-78
2021/12/17 02:37:53;;;;;;;4.47;4.07;;;;;;;19.68;50.29;99431.69;5015693;28;20333;-79
2021/12/17 02:45:33;;;;;;;4.63;4.13;;;;;;;19.66;50.18;99417.97;5011099;28;20288;-80
2021/12/17 02:48:05;;;;;;;4.87;4.33;;;;;;;19.66;50.24;99423.06;5011209;28;20224;-80
2021/12/17 02:50:56;;;;;;;6.73;4.37;;;;;;;19.03;50.44;99330.38;5027394;28;20676;-80
2021/12/17 02:53:26;;;;;;;4.40;4.00;;;;;;;18.15;50.15;99150.28;4984552;28;20679;-79
2021/12/17 02:56:12;;;;;;;6.50;4.87;;;;;;;19.32;50.16;99385.88;4961514;28;20202;-79
2021/12/17 02:58:38;;;;;;;4.63;3.67;;;;;;;17.84;49.95;99163.31;4977188;28;20229;-78
2021/12/17 03:01:10;;;;;;;5.63;4.53;;;;;;;11.37;49.89;98011.41;4997715;28;20210;-78
2021/12/17 03:03:38;;;;;;;4.80;3.90;;;;;;;19.64;50.04;99412.78;5039587;28;20205;-78
2021/12/17 03:06:04;;;;;;;4.73;4.23;;;;;;;18.27;50.17;99180.78;5050122;28;20587;-77
2021/12/17 03:08:38;;;;;;;5.47;4.30;;;;;;;19.66;50.09;99415.41;5017732;28;20228;-78
2021/12/17 03:11:12;;;;;;;4.50;4.10;;;;;;;17.23;50.01;98989.53;5010460;28;20198;-86
2021/12/17 03:13:44;;;;;;;4.23;3.70;;;;;;;19.65;50.10;99423.84;5027292;28;20206;-86
2021/12/17 03:24:02;;;;;;;4.97;4.47;;;;;;;19.23;50.33;99345.34;4991487;28;20688;-87
2021/12/17 03:26:29;;;;;;;4.37;3.90;;;;;;;15.99;50.40;98766.66;4992400;28;20222;-85
2021/12/17 03:29:02;;;;;;;4.70;4.23;;;;;;;19.60;50.44;99398.03;4992274;28;20237;-85
2021/12/17 03:31:32;;;;;;;5.13;4.30;;;;;;;19.60;50.41;99440.53;4992345;28;20198;-85
2021/12/17 03:34:19;;;;;;;4.77;4.17;;;;;;;19.01;50.55;99306.44;5000296;28;20240;-87
2021/12/17 03:36:47;;;;;;;4.20;3.80;;;;;;;18.56;50.45;99211.66;5001192;28;20216;-86
2021/12/17 03:39:15;;;;;;;4.17;3.60;;;;;;;15.06;50.73;98640.78;5011388;28;20221;-85
2021/12/17 03:41:48;;;;;;;4.13;3.70;;;;;;;15.79;50.75;98729.78;5010268;28;20252;-78
2021/12/17 03:44:15;;;;;;;4.53;3.90;;;;;;;16.22;50.13;98845.22;5003011;28;20202;-78
2021/12/17 03:46:44;;;;;;;4.60;4.10;;;;;;;19.62;50.56;99373.50;5010164;28;20266;-78
2021/12/17 03:49:11;;;;;;;4.50;4.10;;;;;;;17.19;50.33;98942.69;4976402;28;20240;-78
2021/12/17 03:51:48;;;;;;;4.80;3.87;;;;;;;16.25;50.26;98822.59;5021420;28;20228;-80
2021/12/17 03:54:14;;;;;;;4.07;3.67;;;;;;;13.50;50.22;98340.19;4977379;28;20252;-79
2021/12/17 03:56:41;;;;;;;4.33;3.90;;;;;;;17.53;50.16;98978.94;4992307;28;20205;-80
2021/12/17 03:59:10;;;;;;;3.93;3.40;;;;;;;19.67;50.42;99363.63;4975796;28;20234;-78
2021/12/17 04:01:38;;;;;;;4.67;4.27;;;;;;;15.79;49.87;98723.81;4988876;28;20244;-77
2021/12/17 04:04:05;;;;;;;3.90;3.53;;;;;;;19.69;50.11;99360.38;4978917;28;20620;-78
2021/12/17 04:06:32;;;;;;;5.23;4.20;;;;;;;19.69;50.35;99372.25;5009082;28;20244;-76
2021/12/17 04:08:59;;;;;;;4.03;3.63;;;;;;;19.70;50.24;99374.91;4975778;28;20788;-78
2021/12/17 04:11:26;;;;;;;4.30;3.90;;;;;;;18.98;50.20;99244.22;5021998;28;20320;-78
2021/12/17 04:14:00;;;;;;;3.90;3.53;;;;;;;19.71;50.30;99366.47;5005070;28;20206;-77
2021/12/17 04:16:30;;;;;;;4.07;3.67;;;;;;;18.22;50.35;99136.31;4991979;28;20273;-81
2021/12/17 04:18:57;;;;;;;3.87;3.57;;;;;;;19.71;50.31;99373.22;4986053;28;20214;-78
2021/12/17 04:21:24;;;;;;;5.00;3.70;;;;;;;19.72;50.17;99372.47;4973281;28;20236;-80
2021/12/17 04:23:53;;;;;;;3.77;3.43;;;;;;;16.86;50.08;98909.00;5005633;28;20204;-77
2021/12/17 04:26:24;;;;;;;4.00;3.70;;;;;;;16.38;50.13;98836.25;4976605;28;20249;-78
2021/12/17 04:28:53;;;;;;;3.50;3.20;;;;;;;14.72;49.88;98558.16;4989096;28;20278;-80
2021/12/17 04:31:28;;;;;;;3.60;3.30;;;;;;;18.03;50.26;99079.88;4979429;28;20293;-78
2021/12/17 04:33:55;;;;;;;3.77;3.43;;;;;;;9.60;49.99;97599.06;5005027;28;20268;-78
2021/12/17 04:36:27;;;;;;;4.23;3.50;;;;;;;16.54;50.20;98827.19;4959427;28;20214;-80
2021/12/17 04:38:57;;;;;;;3.63;3.33;;;;;;;15.21;50.18;98640.22;4988204;28;20248;-78
2021/12/17 04:41:43;;;;;;;3.40;3.13;;;;;;;15.01;51.02;98640.44;4976740;28;20214;-78
2021/12/17 04:44:19;;;;;;;3.73;3.43;;;;;;;19.70;50.29;99399.53;4993681;28;20297;-79
2021/12/17 04:57:56;;;;;;;4.10;3.70;;;;;;;13.51;50.60;98336.03;4982305;28;20229;-76
2021/12/17 05:00:26;;;;;;;3.80;3.40;;;;;;;16.74;50.36;98893.81;5009726;28;20230;-80
2021/12/17 05:02:55;;;;;;;3.83;3.40;;;;;;;19.10;50.26;99346.97;4993986;28;20667;-78
2021/12/17 05:05:28;;;;;;;3.77;3.37;;;;;;;18.78;50.29;99285.28;5003386;28;20214;-78
2021/12/17 05:08:14;;;;;;;3.57;3.27;;;;;;;19.68;50.40;99416.38;4993460;28;20630;-79
2021/12/17 05:19:14;;;;;;;3.80;3.40;;;;;;;19.66;50.19;99402.66;5022397;28;20233;-79
2021/12/17 05:21:41;;;;;;;3.50;3.20;;;;;;;17.93;50.03;99103.81;4999929;28;20197;-79
2021/12/17 05:24:07;;;;;;;3.70;3.40;;;;;;;19.67;50.04;99417.19;4978293;28;20210;-80
2021/12/17 05:26:40;;;;;;;3.00;2.80;;;;;;;18.51;49.97;99223.22;5013973;28;20225;-79
2021/12/17 05:29:06;;;;;;;4.03;2.90;;;;;;;19.66;50.09;99415.41;5000800;28;20225;-77
2021/12/17 05:31:42;;;;;;;4.27;3.40;;;;;;;18.83;49.95;99266.97;4998409;28;20205;-79
2021/12/17 05:34:09;;;;;;;3.30;3.00;;;;;;;17.14;49.95;99024.44;4987137;28;20240;-78
2021/12/17 05:36:36;;;;;;;3.50;3.20;;;;;;;19.65;50.03;99424.72;5010952;28;20765;-85
2021/12/17 05:39:08;;;;;;;3.33;3.03;;;;;;;18.61;50.25;99240.84;4982311;28;20257;-86
2021/12/17 05:41:35;;;;;;;5.33;3.20;;;;;;;17.15;50.32;99014.41;4997691;28;20754;-85
2021/12/17 05:44:01;;;;;;;3.53;3.00;;;;;;;13.72;50.05;98437.00;4998479;28;20207;-86
2021/12/17 05:46:48;;;;;;;3.73;3.33;;;;;;;17.56;50.31;99057.97;4964526;28;20911;-84
2021/12/17 05:49:20;;;;;;;3.60;3.00;;;;;;;11.28;50.14;97958.72;5003945;28;20253;-84
2021/12/17 05:51:46;;;;;;;3.67;3.37;;;;;;;18.78;50.52;99281.09;4974507;28;20645;-84
2021/12/17 05:54:16;;;;;;;3.10;2.80;;;;;;;15.58;50.46;98718.13;4986108;28;20232;-84
2021/12/17 05:56:46;;;;;;;3.93;3.17;;;;;;;11.33;50.44;98006.88;4987928;28;20289;-86
2021/12/17 05:59:14;;;;;;;3.63;2.80;;;;;;;16.37;50.46;98851.38;5022105;28;20268;-84
2021/12/17 06:01:40;;;;;;;3.43;3.00;;;;;;;19.22;50.22;99506.69;4996575;28;20640;-85
2021/12/17 06:04:07;;;;;;;3.70;3.20;;;;;;;16.74;50.31;98936.97;5005666;28;20206;-86
2021/12/17 06:06:36;;;;;;;4.20;3.03;;;;;;;17.56;50.06;99068.13;5001933;28;20583;-86
2021/12/17 06:09:05;;;;;;;3.90;3.37;;;;;;;10.96;49.82;98019.13;4991750;28;20229;-85
2021/12/17 06:11:33;;;;;;;3.40;3.10;;;;;;;13.73;49.89;98426.13;4991017;28;20236;-88
2021/12/17 06:14:03;;;;;;;3.23;2.93;;;;;;;15.73;50.19;98725.91;4992832;28;20599;-86
2021/12/17 06:19:14;;;;;;;3.27;2.80;;;;;;;16.81;50.23;98923.91;5169567;23;20206;-88
2021/12/17 06:27:26;;;;;;;3.90;3.50;;;;;;;15.30;50.69;98691.53;5177276;23;20222;-85
2021/12/17 06:30:01;;;;;;;3.03;2.73;;;;;;;13.52;50.74;98442.22;5211773;23;20218;-88
2021/12/17 06:32:28;;;;;;;3.50;2.97;;;;;;;12.92;50.20;98303.84;4973908;28;20329;-88
2021/12/17 06:35:10;;;;;;;3.30;3.00;;;;;;;19.83;50.56;99474.44;4963924;28;20238;-88
2021/12/17 06:37:45;;;;;;;4.97;3.67;;;;;;;14.30;49.49;98541.63;4962721;28;20203;-88
2021/12/17 06:40:13;;;;;;;4.90;3.67;;;;;;;13.97;49.69;98545.78;4979432;28;20195;-88
2021/12/17 06:42:40;;;;;;;3.87;3.47;;;;;;;15.79;49.40;98744.09;4950064;28;20192;-88
2021/12/17 06:47:54;;;;;;;3.10;2.90;;;;;;;18.07;49.63;99202.31;5008414;28;20244;-82
2021/12/17 07:17:22;;;;;;;14.83;8.47;;;;;;;17.47;57.94;98992.09;4965697;28;20273;-82
2021/12/17 07:33:17;;;;;;;19.23;8.17;;;;;;;19.98;56.66;99421.84;4990784;28;20203;-83
2021/12/17 07:40:58;;;;;;;17.50;7.97;;;;;;;19.26;55.73;99309.84;4961988;28;20226;-83
2021/12/17 07:43:28;;;;;;;15.67;7.30;;;;;;;19.93;55.10;99419.78;4957270;28;20270;-83
2021/12/17 07:45:55;;;;;;;15.40;7.77;;;;;;;19.72;54.44;99387.75;4942212;28;20238;-82
2021/12/17 07:48:23;;;;;;;10.10;7.33;;;;;;;19.91;53.18;99427.34;4941475;28;20262;-82
2021/12/17 07:50:49;;;;;;;10.90;7.13;;;;;;;19.71;51.62;99399.63;4941631;28;20297;-82
2021/12/17 07:53:16;;;;;;;11.97;7.57;;;;;;;19.61;50.22;99387.06;4954246;28;20309;-82
2021/12/17 07:55:43;;;;;;;10.67;7.43;;;;;;;19.72;49.40;99415.84;4951449;28;20290;-82
2021/12/17 07:58:09;;;;;;;12.83;7.50;;;;;;;19.45;49.44;99363.84;4962553;28;20667;-82
2021/12/17 08:00:36;;;;;;;8.33;5.87;;;;;;;19.48;50.28;99376.81;4954662;28;20596;-82
2021/12/17 08:03:03;;;;;;;7.77;6.10;;;;;;;19.64;50.72;99394.03;4953085;28;20278;-84
2021/12/17 08:05:29;;;;;;;8.30;6.07;;;;;;;19.35;50.86;99341.09;4937128;28;20672;-82
2021/12/17 08:07:56;;;;;;;6.57;5.27;;;;;;;19.19;51.15;99310.22;4950414;28;20329;-82
2021/12/17 08:10:23;;;;;;;5.50;4.70;;;;;;;19.34;51.48;99338.44;4935935;28;20285;-81
2021/12/17 08:12:54;;;;;;;6.53;5.23;;;;;;;19.87;51.71;99437.25;4951275;28;20258;-83
2021/12/17 08:15:28;;;;;;;6.07;4.97;;;;;;;19.46;51.51;99362.19;4966441;28;20249;-82
2021/12/17 08:26:42;;;;;;;7.97;5.37;;;;;;;18.34;51.68;99170.22;4962783;28;20235;-79
2021/12/17 08:29:25;;;;;;;5.90;4.77;;;;;;;19.43;51.84;99362.91;4965497;28;20245;-83
2021/12/17 08:31:52;;;;;;;6.00;4.70;;;;;;;19.41;51.93;99363.56;4944133;28;20289;-81
2021/12/17 08:34:19;;;;;;;5.77;4.53;;;;;;;19.59;51.96;99400.47;4938939;28;20290;-82
2021/12/17 08:36:45;;;;;;;5.67;4.73;;;;;;;19.05;51.90;99310.09;4970701;28;20218;-80
2021/12/17 08:39:12;;;;;;;10.57;5.17;;;;;;;18.86;51.72;99282.47;4937133;28;20203;-82
2021/12/17 08:41:40;;;;;;;6.50;4.73;;;;;;;19.21;52.13;99357.09;4950751;28;20301;-81
2021/12/17 08:44:07;;;;;;;5.20;4.30;;;;;;;19.56;52.21;99407.91;4973091;28;20277;-82
2021/12/17 08:46:35;;;;;;;7.80;4.43;;;;;;;19.54;52.21;99407.81;4972708;28;20301;-79
2021/12/17 08:49:02;;;;;;;8.20;4.70;;;;;;;19.24;52.27;99361.50;4936654;28;20258;-84
2021/12/17 08:51:30;;;;;;;6.27;4.60;;;;;;;19.18;52.41;99358.53;4957289;28;20253;-82
2021/12/17 08:53:56;;;;;;;5.73;4.43;;;;;;;19.39;52.36;99394.03;4953629;28;20287;-82
2021/12/17 08:56:27;;;;;;;4.47;4.07;;;;;;;19.62;52.41;99436.38;4953680;28;20704;-83
2021/12/17 08:58:54;;;;;;;5.80;4.63;;;;;;;19.44;52.52;99397.78;4938696;28;20241;-82
2021/12/17 09:01:21;;;;;;;4.90;4.40;;;;;;;19.15;52.46;99354.13;4972373;28;20199;-83
2021/12/17 09:03:47;;;;;;;5.13;4.23;;;;;;;19.14;52.58;99348.94;4937751;28;20239;-83
2021/12/17 09:06:17;;;;;;;6.50;4.43;;;;;;;19.49;52.55;99421.94;4933911;28;20208;-84
2021/12/17 09:08:44;;;;;;;8.13;4.20;;;;;;;19.18;52.65;99354.34;4952587;28;20940;-83
2021/12/17 09:11:10;;;;;;;5.33;4.13;;;;;;;19.19;52.57;99358.63;4936428;28;20736;-83
2021/12/17 09:13:37;;;;;;;7.27;4.30;;;;;;;19.12;52.54;99345.38;4937663;28;20239;-82
2021/12/17 09:16:06;;;;;;;4.37;3.77;;;;;;;19.58;52.50;99429.31;4937300;28;20234;-83
2021/12/17 09:18:34;;;;;;;5.60;4.70;;;;;;;19.27;52.58;99365.19;4955272;28;20914;-82
2021/12/17 09:21:00;;;;;;;7.97;4.27;;;;;;;19.28;52.38;99363.53;4954435;28;20253;-82
2021/12/17 09:23:27;;;;;;;6.27;3.90;;;;;;;19.09;52.68;99343.53;4955393;28;20290;-81
2021/12/17 09:25:53;;;;;;;5.10;4.03;;;;;;;19.40;52.69;99393.28;4949018;28;20199;-82
2021/12/17 09:28:20;;;;;;;4.70;4.20;;;;;;;19.13;52.16;99363.31;4957262;28;20226;-84
2021/12/17 09:30:47;;;;;;;8.60;4.00;;;;;;;19.28;52.65;99372.06;4973137;28;20191;-82
2021/12/17 09:33:13;;;;;;;4.77;4.10;;;;;;;19.23;52.38;99362.28;4956322;28;20293;-82
2021/12/17 09:35:40;;;;;;;4.53;3.77;;;;;;;18.92;52.32;99307.50;4956742;28;20684;-82
2021/12/17 09:38:07;;;;;;;6.23;4.23;;;;;;;19.38;52.53;99378.66;4956094;28;20250;-84
2021/12/17 09:40:33;;;;;;;4.90;3.90;;;;;;;19.29;52.44;99358.53;4936932;28;20282;-82
2021/12/17 09:43:00;;;;;;;4.70;3.80;;;;;;;19.16;52.69;99335.50;4952929;28;20450;-82
2021/12/17 09:45:26;;;;;;;4.60;4.10;;;;;;;19.52;52.51;99399.19;4955955;28;20253;-82
2021/12/17 09:47:53;;;;;;;4.30;3.67;;;;;;;19.75;52.84;99455.16;4967441;28;20270;-82
2021/12/17 09:50:21;;;;;;;4.27;3.87;;;;;;;19.29;52.65;99373.81;4956704;28;20294;-81
2021/12/17 09:52:48;;;;;;;4.80;4.20;;;;;;;19.20;52.61;99344.25;4952555;28;20212;-82
2021/12/17 09:55:14;;;;;;;4.03;3.57;;;;;;;19.76;52.50;99443.31;4937144;28;20655;-82
2021/12/17 09:57:41;;;;;;;4.67;4.07;;;;;;;19.50;52.54;99395.66;4952681;28;21041;-81
2021/12/17 10:00:15;;;;;;;4.77;4.07;;;;;;;19.75;52.42;99433.88;4937541;28;20221;-80
2021/12/17 10:02:45;;;;;;;5.33;4.13;;;;;;;19.58;52.14;99403.81;4962518;28;20318;-82
2021/12/17 10:05:30;;;;;;;6.23;4.13;;;;;;;13.16;52.46;98337.59;4982951;28;20206;-87
2021/12/17 10:08:00;;;;;;;4.23;3.63;;;;;;;18.02;52.24;99136.59;4965021;28;20214;-89
2021/12/17 10:10:38;;;;;;;4.33;3.83;;;;;;;15.08;52.50;98654.44;4961807;28;20179;-87
2021/12/17 10:13:25;;;;;;;5.90;4.27;;;;;;;14.32;52.40;98574.59;4962894;28;20201;-88
2021/12/17 10:15:55;;;;;;;4.80;4.30;;;;;;;14.54;52.18;98566.16;4973675;28;20188;-89
2021/12/17 10:18:39;;;;;;;4.03;3.70;;;;;;;17.92;52.46;99150.34;4962368;28;20211;-88
2021/12/17 10:21:07;;;;;;;3.83;3.47;;;;;;;19.73;52.53;99436.34;4959691;28;20192;-89
2021/12/17 10:23:34;;;;;;;5.77;3.83;;;;;;;15.56;52.46;98714.59;4974564;28;20179;-88
2021/12/17 10:26:02;;;;;;;4.03;3.63;;;;;;;17.32;52.54;99008.81;4976085;28;20226;-86
2021/12/17 10:28:30;;;;;;;4.20;3.80;;;;;;;12.14;51.74;98197.88;5008400;28;20431;-89
2021/12/17 10:30:57;;;;;;;6.13;3.63;;;;;;;16.62;52.35;98950.44;4993352;28;21545;-88
2021/12/17 10:33:26;;;;;;;4.27;3.60;;;;;;;15.54;52.39;98713.59;4960547;28;20183;-87
2021/12/17 10:35:54;;;;;;;4.37;3.97;;;;;;;17.59;52.04;99126.81;4960002;28;22926;-86
2021/12/17 10:38:25;;;;;;;4.20;3.80;;;;;;;13.80;52.13;98429.97;4977243;28;20242;-88
2021/12/17 10:41:09;;;;;;;4.30;3.90;;;;;;;12.92;51.82;98240.78;4962480;28;20226;-88
2021/12/17 10:43:39;;;;;;;4.60;4.03;;;;;;;15.60;52.05;98762.16;4965756;28;20211;-88
2021/12/17 10:46:21;;;;;;;4.43;4.03;;;;;;;12.60;51.86;98240.91;4977379;28;20211;-88
2021/12/17 10:53:54;;;;;;;4.53;4.00;;;;;;;18.52;51.63;99214.78;4993578;28;20187;-88
2021/12/17 10:56:24;;;;;;;4.43;4.03;;;;;;;15.81;51.39;98804.25;4980837;28;20179;-87
2021/12/17 10:58:59;;;;;;;4.67;4.27;;;;;;;13.97;51.63;98434.59;4962134;28;20187;-88
2021/12/17 11:01:36;;;;;;;4.27;3.87;;;;;;;19.83;51.56;99436.16;4961824;28;20183;-89
2021/12/17 11:04:05;;;;;;;4.27;3.83;;;;;;;15.52;51.42;98722.75;5008311;28;20239;-88
2021/12/17 11:06:43;;;;;;;4.20;3.80;;;;;;;16.39;50.93;98835.50;4979474;28;20233;-87
2021/12/17 11:09:10;;;;;;;6.43;4.30;;;;;;;14.38;51.44;98560.75;4977734;28;20218;-88
2021/12/17 11:11:42;;;;;;;4.63;3.90;;;;;;;16.06;50.92;98838.19;4962551;28;20183;-88
2021/12/17 11:14:08;;;;;;;4.40;4.00;;;;;;;15.05;51.09;98656.75;4963576;28;20179;-89
2021/12/17 11:16:39;;;;;;;4.30;3.90;;;;;;;14.94;50.94;98644.94;4991201;28;20237;-89
2021/12/17 11:19:06;;;;;;;5.30;4.53;;;;;;;16.19;51.16;98824.72;4972711;28;20218;-89
2021/12/17 11:21:33;;;;;;;4.53;4.03;;;;;;;14.55;50.57;98577.16;4977388;28;20187;-88
2021/12/17 11:24:00;;;;;;;4.53;4.13;;;;;;;12.90;50.70;98196.91;4973436;28;20203;-86
2021/12/17 11:26:30;;;;;;;4.83;4.33;;;;;;;15.65;50.78;98749.81;4959647;28;20601;-87
2021/12/17 11:29:03;;;;;;;4.03;3.63;;;;;;;13.43;50.89;98320.34;4992198;28;20282;-89
2021/12/17 11:31:31;;;;;;;4.70;4.30;;;;;;;16.33;51.21;98803.75;4973319;28;20183;-88
2021/12/17 11:34:00;;;;;;;4.60;4.20;;;;;;;14.51;50.77;98534.72;4976833;28;20218;-85
2021/12/17 11:36:28;;;;;;;4.57;4.17;;;;;;;13.61;50.70;98340.97;4973945;28;20236;-87
2021/12/17 11:39:08;;;;;;;4.97;4.33;;;;;;;13.10;50.69;98302.72;4976593;28;20183;-88
2021/12/17 11:41:57;;;;;;;3.97;3.60;;;;;;;19.97;50.77;99411.53;4980044;28;20262;-88
2021/12/17 11:44:29;;;;;;;4.20;3.80;;;;;;;16.79;50.65;98932.22;4990631;28;20222;-89
2021/12/17 11:47:02;;;;;;;6.50;5.07;;;;;;;18.21;51.22;99176.13;4980671;28;20222;-89
2021/12/17 11:49:34;;;;;;;8.57;5.20;;;;;;;13.16;50.62;98304.81;4971427;28;20207;-88
2021/12/17 11:52:01;;;;;;;12.93;6.87;;;;;;;14.37;50.58;98513.50;4978965;28;20188;-87
2021/12/17 11:54:30;;;;;;;18.37;7.67;;;;;;;17.31;50.66;98930.81;4958547;28;20187;-90
2021/12/17 11:57:05;;;;;;;13.77;7.20;;;;;;;14.44;50.38;98428.81;4966552;28;20195;-89
2021/12/17 11:59:34;;;;;;;17.07;8.30;;;;;;;13.51;50.30;98261.19;4966763;28;20187;-89
2021/12/17 12:02:06;;;;;;;14.30;7.87;;;;;;;20.08;50.38;99387.59;4951255;28;20196;-88
2021/12/17 12:04:39;;;;;;;16.00;8.40;;;;;;;20.10;50.25;99393.66;4999676;28;20178;-89
2021/12/17 12:07:19;;;;;;;15.73;7.60;;;;;;;14.51;50.21;98499.31;4982490;28;20207;-90
2021/12/17 12:10:27;;;;;;;19.37;9.90;;;;;;;20.12;50.34;99404.88;4982347;28;20246;-87
2021/12/17 12:12:55;;;;;;;23.20;10.10;;;;;;;13.60;50.01;98302.25;4945666;29;20181;-89
2021/12/17 12:15:24;;;;;;;22.03;9.83;;;;;;;20.15;50.12;99405.09;4927025;29;20299;-88
2021/12/17 12:17:57;;;;;;;21.13;9.67;;;;;;;20.16;50.08;99406.00;4986177;23;20238;-78
2021/12/17 12:20:52;;;;;;;17.67;9.60;;;;;;;20.16;49.94;99404.31;5008638;28;20695;-82
2021/12/17 12:23:24;;;;;;;21.77;10.43;;;;;;;20.18;49.57;99402.75;4990686;28;20293;-80
2021/12/17 12:26:03;;;;;;;20.93;9.90;;;;;;;20.20;49.97;99405.41;5008766;28;20237;-76
2021/12/17 12:28:45;;;;;;;22.17;10.27;;;;;;;20.20;49.69;99401.19;4977005;28;20231;-80
2021/12/17 12:31:24;;;;;;;18.57;9.17;;;;;;;19.91;49.54;99342.25;5005547;28;20742;-81
2021/12/17 12:34:04;;;;;;;18.33;9.70;;;;;;;20.20;49.65;99393.53;5008623;28;20209;-80
2021/12/17 12:36:55;;;;;;;16.17;9.03;;;;;;;20.21;49.65;99389.28;4997613;28;20289;-79
2021/12/17 12:39:35;;;;;;;18.07;9.23;;;;;;;20.21;49.59;99389.28;4989092;28;20238;-81
2021/12/17 12:42:03;;;;;;;17.57;8.70;;;;;;;20.22;49.56;99383.41;4989380;28;20215;-79
2021/12/17 12:44:39;;;;;;;14.67;7.70;;;;;;;20.21;49.56;99379.97;4996190;28;20230;-81
2021/12/17 12:47:24;;;;;;;14.20;8.10;;;;;;;20.21;49.75;99384.19;4976529;28;20253;-82
2021/12/17 12:50:14;;;;;;;14.97;8.03;;;;;;;19.94;49.51;99338.22;4983135;28;20232;-82
2021/12/17 12:52:55;;;;;;;16.50;8.30;;;;;;;18.16;49.84;99085.91;4958827;28;20552;-81
2021/12/17 12:55:43;;;;;;;16.73;7.67;;;;;;;18.28;49.73;99042.56;4956754;28;20669;-78
2021/12/17 12:58:12;;;;;;;13.57;7.60;;;;;;;18.47;49.68;99081.19;4972729;28;20228;-78
2021/12/17 13:00:42;;;;;;;13.73;7.57;;;;;;;20.18;49.49;99379.78;4955363;28;20286;-81
2021/12/17 13:03:23;;;;;;;13.73;7.97;;;;;;;20.18;49.81;99381.44;4985586;28;20765;-81
2021/12/17 13:05:56;;;;;;;16.40;8.87;;;;;;;17.74;49.79;98953.28;4957824;28;20207;-83
2021/12/17 13:08:25;;;;;;;13.67;8.00;;;;;;;20.18;49.81;99386.53;4966563;28;20732;-81
2021/12/17 13:10:58;;;;;;;14.23;8.33;;;;;;;20.16;49.91;99394.09;4970059;28;20230;-80
2021/12/17 13:13:36;;;;;;;14.50;8.50;;;;;;;19.86;49.49;99415.03;4964468;28;20202;-81
2021/12/17 13:16:35;;;;;;;13.77;7.80;;;;;;;20.15;49.77;99407.66;4966034;28;20617;-80
2021/12/17 13:24:30;;;;;;;13.47;8.50;;;;;;;15.55;49.50;98643.53;4974843;28;20207;-79
2021/12/17 13:27:09;;;;;;;12.27;7.37;;;;;;;17.93;49.68;99032.59;4977975;28;20209;-78
2021/12/17 13:29:38;;;;;;;13.97;8.73;;;;;;;20.11;49.64;99417.53;4970763;28;20222;-79
2021/12/17 13:32:05;;;;;;;13.97;8.40;;;;;;;20.10;49.63;99411.53;4993099;28;20834;-80
2021/12/17 13:34:37;;;;;;;14.80;8.87;;;;;;;19.16;50.00;99268.38;4971833;28;20662;-80
2021/12/17 13:37:08;;;;;;;12.73;8.90;;;;;;;17.87;49.60;99047.44;4973726;28;20280;-80
2021/12/17 13:39:35;;;;;;;13.47;8.70;;;;;;;20.08;49.60;99408.03;4973911;28;20207;-83
2021/12/17 13:42:02;;;;;;;14.50;8.67;;;;;;;20.08;49.65;99412.22;4973721;28;20946;-83
2021/12/17 13:44:37;;;;;;;12.70;8.30;;;;;;;20.07;49.47;99413.03;5000962;28;20433;-80
2021/12/17 13:47:25;;;;;;;14.67;9.10;;;;;;;20.07;49.57;99413.03;4973233;28;20235;-79
2021/12/17 13:49:58;;;;;;;11.93;8.07;;;;;;;20.05;49.49;99410.38;4973538;28;20704;-80
2021/12/17 13:52:27;;;;;;;11.83;8.23;;;;;;;18.73;49.56;99258.63;4990894;28;20282;-83
2021/12/17 13:54:54;;;;;;;12.83;8.70;;;;;;;20.04;49.59;99421.34;4956842;28;20706;-79
2021/12/17 13:57:23;;;;;;;14.50;8.57;;;;;;;19.27;49.47;99288.69;4957385;28;20326;-82
2021/12/17 13:59:50;;;;;;;11.67;7.93;;;;;;;17.73;49.56;99015.09;4972958;28;20302;-80
2021/12/17 14:02:18;;;;;;;11.13;7.90;;;;;;;19.17;49.44;99255.72;4957109;28;20329;-79
2021/12/17 14:04:59;;;;;;;14.93;8.30;;;;;;;20.04;49.46;99420.50;4972706;28;20233;-83
2021/12/17 14:07:31;;;;;;;11.30;8.10;;;;;;;20.02;49.64;99411.03;4957455;28;20310;-79
2021/12/17 14:10:14;;;;;;;13.67;8.17;;;;;;;20.02;49.51;99415.28;4973181;28;20266;-79
2021/12/17 14:12:42;;;;;;;11.07;7.50;;;;;;;19.67;49.60;99351.75;4956931;28;20269;-79
2021/12/17 14:15:31;;;;;;;10.10;7.30;;;;;;;17.55;49.72;99039.28;4969695;28;20202;-81
2021/12/17 14:18:07;;;;;;;11.63;7.93;;;;;;;17.15;49.54;98950.91;4961414;28;20666;-79
2021/12/17 14:20:46;;;;;;;9.40;7.10;;;;;;;19.75;49.62;99424.53;4954238;28;20194;-83
2021/12/17 14:23:18;;;;;;;11.03;6.93;;;;;;;20.00;49.47;99427.06;4994649;28;20285;-82
2021/12/17 14:25:53;;;;;;;9.77;7.03;;;;;;;16.67;49.59;98829.84;4966390;28;20207;-81
2021/12/17 14:28:30;;;;;;;9.90;7.40;;;;;;;15.59;49.32;98686.94;4971945;28;20229;-79
2021/12/17 14:31:10;;;;;;;10.37;7.23;;;;;;;17.59;49.59;99025.13;4958129;28;20269;-81
2021/12/17 14:33:46;;;;;;;10.67;7.00;;;;;;;17.24;49.67;98930.31;4964520;28;20203;-79
2021/12/17 14:36:19;;;;;;;9.40;6.83;;;;;;;16.76;49.60;98841.50;4972929;28;20607;-82
2021/12/17 14:39:11;;;;;;;9.60;6.80;;;;;;;19.98;49.62;99416.75;4972945;28;20277;-80
2021/12/17 14:41:48;;;;;;;9.50;6.83;;;;;;;18.27;49.56;99106.97;4956973;28;20206;-80
2021/12/17 15:05:59;;;;;;;8.50;6.40;;;;;;;19.80;49.44;99358.50;4952024;28;20683;-80
2021/12/17 15:08:26;;;;;;;8.43;6.17;;;;;;;17.49;49.89;99087.16;4992269;28;20607;-89
2021/12/17 15:10:53;;;;;;;7.57;5.80;;;;;;;19.55;49.49;99329.66;4978949;28;20215;-89
2021/12/17 15:13:20;;;;;;;6.87;5.67;;;;;;;13.98;49.55;98350.47;4958522;28;20211;-89
2021/12/17 15:15:47;;;;;;;8.77;6.47;;;;;;;18.84;49.69;99206.75;4961616;28;20273;-89
2021/12/17 15:18:15;;;;;;;8.00;6.10;;;;;;;19.95;49.52;99403.78;4973939;28;20234;-88
2021/12/17 15:20:43;;;;;;;6.53;5.77;;;;;;;13.72;49.24;98346.06;4972668;28;20235;-89
2021/12/17 15:23:10;;;;;;;6.83;5.97;;;;;;;19.94;49.57;99399.47;4976161;28;20791;-89
2021/12/17 15:25:39;;;;;;;7.87;6.30;;;;;;;16.86;49.76;98906.47;4971088;28;20692;-88
2021/12/17 15:28:08;;;;;;;9.07;6.37;;;;;;;17.68;49.67;99015.56;4962757;28;20233;-89
2021/12/17 15:30:41;;;;;;;8.40;6.30;;;;;;;18.72;49.67;99183.00;4954926;28;20266;-87